sensor_id;sensor_type;location;lat;lon;timestamp;temperature;humidity
57242;DHT22;43095;53.302;5.786;2022-09-16T00:00:43;12.40;99.90
57242;DHT22;43095;53.302;5.786;2022-09-16T00:03:29;12.50;99.90
57242;DHT22;43095;53.302;5.786;2022-09-16T00:06:20;12.40;99.90
57242;DHT22;43095;53.302;5.786;2022-09-16T00:09:06;12.40;99.90
57242;DHT22;43095;53.302;5.786;2022-09-16T00:11:51;12.30;99.90
57242;DHT22;43095;53.302;5.786;2022-09-16T00:14:37;12.30;99.90
57242;DHT22;43095;53.302;5.786;2022-09-16T00:17:22;12.20;99.90
57242;DHT22;43095;53.302;5.786;2022-09-16T00:20:08;12.20;99.90
57242;DHT22;43095;53.302;5.786;2022-09-16T00:22:55;12.20;99.90
57242;DHT22;43095;53.302;5.786;2022-09-16T00:25:41;12.10;99.90
57242;DHT22;43095;53.302;5.786;2022-09-16T00:28:27;12.10;99.90
57242;DHT22;43095;53.302;5.786;2022-09-16T00:31:12;12.10;99.90
57242;DHT22;43095;53.302;5.786;2022-09-16T00:33:58;12.10;99.90
57242;DHT22;43095;53.302;5.786;2022-09-16T00:36:43;12.10;99.90
57242;DHT22;43095;53.302;5.786;2022-09-16T00:39:29;12.20;99.90
57242;DHT22;43095;53.302;5.786;2022-09-16T00:42:16;12.20;99.90
57242;DHT22;43095;53.302;5.786;2022-09-16T00:45:11;12.20;99.90
57242;DHT22;43095;53.302;5.786;2022-09-16T00:48:07;12.30;99.90
57242;DHT22;43095;53.302;5.786;2022-09-16T00:51:01;12.40;99.90
57242;DHT22;43095;53.302;5.786;2022-09-16T00:53:56;12.40;99.90
57242;DHT22;43095;53.302;5.786;2022-09-16T00:56:47;12.50;99.90
57242;DHT22;43095;53.302;5.786;2022-09-16T00:59:40;12.50;99.90
57242;DHT22;43095;53.302;5.786;2022-09-16T01:02:26;12.60;99.90
57242;DHT22;43095;53.302;5.786;2022-09-16T01:05:15;12.60;99.90
57242;DHT22;43095;53.302;5.786;2022-09-16T01:08:02;12.80;99.90
57242;DHT22;43095;53.302;5.786;2022-09-16T01:10:48;12.80;99.90
57242;DHT22;43095;53.302;5.786;2022-09-16T01:13:33;12.90;99.90
57242;DHT22;43095;53.302;5.786;2022-09-16T01:16:28;12.80;99.90
57242;DHT22;43095;53.302;5.786;2022-09-16T01:19:59;12.70;99.90
57242;DHT22;43095;53.302;5.786;2022-09-16T01:23:31;12.70;99.90
57242;DHT22;43095;53.302;5.786;2022-09-16T01:32:28;12.60;99.90
57242;DHT22;43095;53.302;5.786;2022-09-16T01:35:33;12.50;99.90
57242;DHT22;43095;53.302;5.786;2022-09-16T01:38:47;12.40;99.90
57242;DHT22;43095;53.302;5.786;2022-09-16T01:44:49;12.40;99.90
57242;DHT22;43095;53.302;5.786;2022-09-16T01:47:54;12.40;99.90
57242;DHT22;43095;53.302;5.786;2022-09-16T01:51:00;12.40;99.90
57242;DHT22;43095;53.302;5.786;2022-09-16T02:00:02;12.40;99.90
57242;DHT22;43095;53.302;5.786;2022-09-16T02:03:11;12.40;99.90
57242;DHT22;43095;53.302;5.786;2022-09-16T02:06:02;12.40;99.90
57242;DHT22;43095;53.302;5.786;2022-09-16T02:08:57;12.40;99.90
57242;DHT22;43095;53.302;5.786;2022-09-16T02:11:46;12.40;99.90
57242;DHT22;43095;53.302;5.786;2022-09-16T02:14:38;12.30;99.90
57242;DHT22;43095;53.302;5.786;2022-09-16T02:17:29;12.30;99.90
57242;DHT22;43095;53.302;5.786;2022-09-16T02:20:19;12.20;99.90
57242;DHT22;43095;53.302;5.786;2022-09-16T02:23:14;12.20;99.90
57242;DHT22;43095;53.302;5.786;2022-09-16T02:26:04;12.20;99.90
57242;DHT22;43095;53.302;5.786;2022-09-16T02:28:52;12.20;99.90
57242;DHT22;43095;53.302;5.786;2022-09-16T02:31:40;12.30;99.90
57242;DHT22;43095;53.302;5.786;2022-09-16T02:34:33;12.30;99.90
57242;DHT22;43095;53.302;5.786;2022-09-16T02:37:35;12.40;99.90
57242;DHT22;43095;53.302;5.786;2022-09-16T02:40:31;12.40;99.90
57242;DHT22;43095;53.302;5.786;2022-09-16T02:43:18;12.40;99.90
57242;DHT22;43095;53.302;5.786;2022-09-16T02:46:29;12.40;99.90
57242;DHT22;43095;53.302;5.786;2022-09-16T02:58:28;12.70;99.90
57242;DHT22;43095;53.302;5.786;2022-09-16T03:01:15;12.70;99.90
57242;DHT22;43095;53.302;5.786;2022-09-16T03:04:01;12.70;99.90
57242;DHT22;43095;53.302;5.786;2022-09-16T03:06:47;12.60;99.90
57242;DHT22;43095;53.302;5.786;2022-09-16T03:09:38;12.50;99.90
57242;DHT22;43095;53.302;5.786;2022-09-16T03:18:27;12.40;99.90
57242;DHT22;43095;53.302;5.786;2022-09-16T03:21:39;12.40;99.90
57242;DHT22;43095;53.302;5.786;2022-09-16T03:27:19;12.40;99.90
57242;DHT22;43095;53.302;5.786;2022-09-16T03:30:09;12.50;99.90
57242;DHT22;43095;53.302;5.786;2022-09-16T03:32:59;12.50;99.90
57242;DHT22;43095;53.302;5.786;2022-09-16T03:35:48;12.50;99.90
57242;DHT22;43095;53.302;5.786;2022-09-16T03:38:36;12.50;99.90
57242;DHT22;43095;53.302;5.786;2022-09-16T03:41:23;12.50;99.90
57242;DHT22;43095;53.302;5.786;2022-09-16T03:44:09;12.50;99.90
57242;DHT22;43095;53.302;5.786;2022-09-16T03:46:54;12.50;99.90
57242;DHT22;43095;53.302;5.786;2022-09-16T03:49:40;12.40;99.90
57242;DHT22;43095;53.302;5.786;2022-09-16T03:52:26;12.40;99.90
57242;DHT22;43095;53.302;5.786;2022-09-16T03:55:12;12.50;99.90
57242;DHT22;43095;53.302;5.786;2022-09-16T03:57:58;12.50;99.90
57242;DHT22;43095;53.302;5.786;2022-09-16T04:00:48;12.40;99.90
57242;DHT22;43095;53.302;5.786;2022-09-16T04:03:35;12.40;99.90
57242;DHT22;43095;53.302;5.786;2022-09-16T04:06:22;12.40;99.90
57242;DHT22;43095;53.302;5.786;2022-09-16T04:09:10;12.40;99.90
57242;DHT22;43095;53.302;5.786;2022-09-16T04:11:56;12.30;99.90
57242;DHT22;43095;53.302;5.786;2022-09-16T04:14:42;12.30;99.90
57242;DHT22;43095;53.302;5.786;2022-09-16T04:17:30;12.40;99.90
57242;DHT22;43095;53.302;5.786;2022-09-16T04:20:17;12.30;99.90
57242;DHT22;43095;53.302;5.786;2022-09-16T04:23:03;12.40;99.90
57242;DHT22;43095;53.302;5.786;2022-09-16T04:25:56;12.50;99.90
57242;DHT22;43095;53.302;5.786;2022-09-16T04:28:42;12.50;99.90
57242;DHT22;43095;53.302;5.786;2022-09-16T04:31:28;12.50;99.90
57242;DHT22;43095;53.302;5.786;2022-09-16T04:34:13;12.60;99.90
57242;DHT22;43095;53.302;5.786;2022-09-16T04:36:59;12.60;99.90
57242;DHT22;43095;53.302;5.786;2022-09-16T04:39:44;12.60;99.90
57242;DHT22;43095;53.302;5.786;2022-09-16T04:42:31;12.70;99.90
57242;DHT22;43095;53.302;5.786;2022-09-16T04:45:17;12.70;99.90
57242;DHT22;43095;53.302;5.786;2022-09-16T04:48:03;12.90;99.90
57242;DHT22;43095;53.302;5.786;2022-09-16T04:50:49;12.90;99.90
57242;DHT22;43095;53.302;5.786;2022-09-16T04:53:37;12.80;99.90
57242;DHT22;43095;53.302;5.786;2022-09-16T04:56:25;12.80;99.90
57242;DHT22;43095;53.302;5.786;2022-09-16T04:59:11;12.90;99.90
57242;DHT22;43095;53.302;5.786;2022-09-16T05:01:57;12.80;99.90
57242;DHT22;43095;53.302;5.786;2022-09-16T05:04:44;12.80;99.90
57242;DHT22;43095;53.302;5.786;2022-09-16T05:07:30;12.80;99.90
57242;DHT22;43095;53.302;5.786;2022-09-16T05:10:16;12.80;99.90
57242;DHT22;43095;53.302;5.786;2022-09-16T05:13:01;12.70;99.90
57242;DHT22;43095;53.302;5.786;2022-09-16T05:15:47;12.70;99.90
57242;DHT22;43095;53.302;5.786;2022-09-16T05:18:36;12.70;99.90
57242;DHT22;43095;53.302;5.786;2022-09-16T05:21:25;12.70;99.90
57242;DHT22;43095;53.302;5.786;2022-09-16T05:24:12;12.70;99.90
57242;DHT22;43095;53.302;5.786;2022-09-16T05:26:58;12.80;99.90
57242;DHT22;43095;53.302;5.786;2022-09-16T05:29:43;12.90;99.90
57242;DHT22;43095;53.302;5.786;2022-09-16T05:32:29;12.90;99.90
57242;DHT22;43095;53.302;5.786;2022-09-16T05:35:15;13.00;99.90
57242;DHT22;43095;53.302;5.786;2022-09-16T05:38:00;13.00;99.90
57242;DHT22;43095;53.302;5.786;2022-09-16T05:40:46;13.10;99.90
57242;DHT22;43095;53.302;5.786;2022-09-16T05:43:32;13.10;99.90
57242;DHT22;43095;53.302;5.786;2022-09-16T05:46:21;13.20;99.90
57242;DHT22;43095;53.302;5.786;2022-09-16T05:49:07;13.20;99.90
57242;DHT22;43095;53.302;5.786;2022-09-16T05:51:53;13.10;99.90
57242;DHT22;43095;53.302;5.786;2022-09-16T05:54:39;13.10;99.90
57242;DHT22;43095;53.302;5.786;2022-09-16T05:57:25;13.10;99.90
57242;DHT22;43095;53.302;5.786;2022-09-16T06:00:11;13.10;99.90
57242;DHT22;43095;53.302;5.786;2022-09-16T06:02:57;13.10;99.90
57242;DHT22;43095;53.302;5.786;2022-09-16T06:05:42;13.10;99.90
57242;DHT22;43095;53.302;5.786;2022-09-16T06:08:32;13.10;99.90
57242;DHT22;43095;53.302;5.786;2022-09-16T06:11:18;13.10;99.90
57242;DHT22;43095;53.302;5.786;2022-09-16T06:14:05;13.10;99.90
57242;DHT22;43095;53.302;5.786;2022-09-16T06:16:50;13.10;99.90
57242;DHT22;43095;53.302;5.786;2022-09-16T06:19:35;13.10;99.90
57242;DHT22;43095;53.302;5.786;2022-09-16T06:22:21;13.10;99.90
57242;DHT22;43095;53.302;5.786;2022-09-16T06:25:07;13.20;99.90
57242;DHT22;43095;53.302;5.786;2022-09-16T06:27:53;13.20;99.90
57242;DHT22;43095;53.302;5.786;2022-09-16T06:30:39;13.30;99.90
57242;DHT22;43095;53.302;5.786;2022-09-16T06:33:25;13.40;99.90
57242;DHT22;43095;53.302;5.786;2022-09-16T06:36:15;13.40;99.90
57242;DHT22;43095;53.302;5.786;2022-09-16T06:39:02;13.50;99.90
57242;DHT22;43095;53.302;5.786;2022-09-16T06:41:48;13.60;99.90
57242;DHT22;43095;53.302;5.786;2022-09-16T06:44:34;13.70;99.90
57242;DHT22;43095;53.302;5.786;2022-09-16T06:47:19;13.70;99.90
57242;DHT22;43095;53.302;5.786;2022-09-16T06:50:05;13.80;99.90
57242;DHT22;43095;53.302;5.786;2022-09-16T06:52:51;13.80;99.90
57242;DHT22;43095;53.302;5.786;2022-09-16T06:55:36;13.90;99.90
57242;DHT22;43095;53.302;5.786;2022-09-16T06:58:22;13.80;99.90
57242;DHT22;43095;53.302;5.786;2022-09-16T07:01:10;13.70;99.90
57242;DHT22;43095;53.302;5.786;2022-09-16T07:04:07;13.70;99.90
57242;DHT22;43095;53.302;5.786;2022-09-16T07:06:56;13.70;99.90
57242;DHT22;43095;53.302;5.786;2022-09-16T07:09:54;13.60;99.90
57242;DHT22;43095;53.302;5.786;2022-09-16T07:12:40;13.60;99.90
57242;DHT22;43095;53.302;5.786;2022-09-16T07:15:26;13.70;99.90
57242;DHT22;43095;53.302;5.786;2022-09-16T07:18:11;13.80;99.90
57242;DHT22;43095;53.302;5.786;2022-09-16T07:21:06;13.90;99.90
57242;DHT22;43095;53.302;5.786;2022-09-16T07:23:56;13.90;99.90
57242;DHT22;43095;53.302;5.786;2022-09-16T07:26:43;13.90;99.90
57242;DHT22;43095;53.302;5.786;2022-09-16T07:29:29;13.90;99.90
57242;DHT22;43095;53.302;5.786;2022-09-16T07:32:14;13.90;99.90
57242;DHT22;43095;53.302;5.786;2022-09-16T07:35:00;13.90;99.90
57242;DHT22;43095;53.302;5.786;2022-09-16T07:37:45;14.00;99.90
57242;DHT22;43095;53.302;5.786;2022-09-16T07:40:32;14.00;99.90
57242;DHT22;43095;53.302;5.786;2022-09-16T07:43:18;14.10;97.80
57242;DHT22;43095;53.302;5.786;2022-09-16T07:46:05;14.00;98.80
57242;DHT22;43095;53.302;5.786;2022-09-16T07:48:51;14.00;99.20
57242;DHT22;43095;53.302;5.786;2022-09-16T07:51:37;14.00;97.80
57242;DHT22;43095;53.302;5.786;2022-09-16T07:54:23;14.10;95.80
57242;DHT22;43095;53.302;5.786;2022-09-16T07:57:08;14.20;94.60
57242;DHT22;43095;53.302;5.786;2022-09-16T07:59:54;14.30;91.00
57242;DHT22;43095;53.302;5.786;2022-09-16T08:02:42;14.30;86.10
57242;DHT22;43095;53.302;5.786;2022-09-16T08:05:27;14.40;80.00
57242;DHT22;43095;53.302;5.786;2022-09-16T08:08:13;14.50;84.50
57242;DHT22;43095;53.302;5.786;2022-09-16T08:11:00;14.60;92.90
57242;DHT22;43095;53.302;5.786;2022-09-16T08:13:46;14.70;96.90
57242;DHT22;43095;53.302;5.786;2022-09-16T08:16:31;14.70;97.40
57242;DHT22;43095;53.302;5.786;2022-09-16T08:19:17;14.70;99.90
57242;DHT22;43095;53.302;5.786;2022-09-16T08:22:05;14.70;99.90
57242;DHT22;43095;53.302;5.786;2022-09-16T08:24:50;14.70;99.90
57242;DHT22;43095;53.302;5.786;2022-09-16T08:27:36;14.70;99.90
57242;DHT22;43095;53.302;5.786;2022-09-16T08:30:21;14.80;96.50
57242;DHT22;43095;53.302;5.786;2022-09-16T08:33:07;14.80;85.30
57242;DHT22;43095;53.302;5.786;2022-09-16T08:38:43;15.00;82.70
57242;DHT22;43095;53.302;5.786;2022-09-16T08:41:55;15.00;77.00
57242;DHT22;43095;53.302;5.786;2022-09-16T08:45:03;15.10;76.00
57242;DHT22;43095;53.302;5.786;2022-09-16T08:50:48;15.40;93.70
57242;DHT22;43095;53.302;5.786;2022-09-16T08:53:57;15.40;97.50
57242;DHT22;43095;53.302;5.786;2022-09-16T08:56:46;15.40;97.40
57242;DHT22;43095;53.302;5.786;2022-09-16T08:59:41;15.40;96.60
57242;DHT22;43095;53.302;5.786;2022-09-16T09:02:33;15.40;97.00
57242;DHT22;43095;53.302;5.786;2022-09-16T09:05:40;15.50;96.70
57242;DHT22;43095;53.302;5.786;2022-09-16T09:08:41;15.50;94.80
57242;DHT22;43095;53.302;5.786;2022-09-16T09:14:59;15.40;96.60
57242;DHT22;43095;53.302;5.786;2022-09-16T09:18:18;15.40;99.70
57242;DHT22;43095;53.302;5.786;2022-09-16T09:31:20;16.00;98.80
57242;DHT22;43095;53.302;5.786;2022-09-16T09:40:55;15.90;86.80
57242;DHT22;43095;53.302;5.786;2022-09-16T09:43:54;16.00;91.00
57242;DHT22;43095;53.302;5.786;2022-09-16T09:46:45;15.90;91.60
57242;DHT22;43095;53.302;5.786;2022-09-16T09:49:44;15.90;92.30
57242;DHT22;43095;53.302;5.786;2022-09-16T09:52:37;16.10;90.50
57242;DHT22;43095;53.302;5.786;2022-09-16T09:55:26;16.20;91.40
57242;DHT22;43095;53.302;5.786;2022-09-16T09:58:27;16.20;98.00
57242;DHT22;43095;53.302;5.786;2022-09-16T10:01:15;16.20;97.10
57242;DHT22;43095;53.302;5.786;2022-09-16T10:04:01;16.00;94.90
57242;DHT22;43095;53.302;5.786;2022-09-16T10:06:50;16.00;94.80
57242;DHT22;43095;53.302;5.786;2022-09-16T10:09:51;16.10;92.70
57242;DHT22;43095;53.302;5.786;2022-09-16T10:12:38;16.20;96.80
57242;DHT22;43095;53.302;5.786;2022-09-16T10:15:29;16.20;96.10
57242;DHT22;43095;53.302;5.786;2022-09-16T10:18:28;16.30;93.60
57242;DHT22;43095;53.302;5.786;2022-09-16T10:21:16;16.20;96.50
57242;DHT22;43095;53.302;5.786;2022-09-16T10:24:02;15.90;96.50
57242;DHT22;43095;53.302;5.786;2022-09-16T10:26:48;15.80;96.30
57242;DHT22;43095;53.302;5.786;2022-09-16T10:29:33;16.00;97.10
57242;DHT22;43095;53.302;5.786;2022-09-16T10:32:19;16.20;97.90
57242;DHT22;43095;53.302;5.786;2022-09-16T10:35:08;16.10;99.60
57242;DHT22;43095;53.302;5.786;2022-09-16T10:38:39;15.70;99.90
57242;DHT22;43095;53.302;5.786;2022-09-16T10:41:13;15.50;99.90
57242;DHT22;43095;53.302;5.786;2022-09-16T10:44:02;15.50;99.90
57242;DHT22;43095;53.302;5.786;2022-09-16T10:47:04;15.80;97.20
57242;DHT22;43095;53.302;5.786;2022-09-16T10:49:58;16.10;91.10
57242;DHT22;43095;53.302;5.786;2022-09-16T10:52:48;16.30;93.60
57242;DHT22;43095;53.302;5.786;2022-09-16T10:55:33;16.70;90.70
57242;DHT22;43095;53.302;5.786;2022-09-16T10:58:22;16.70;91.70
57242;DHT22;43095;53.302;5.786;2022-09-16T11:01:31;16.80;89.10
57242;DHT22;43095;53.302;5.786;2022-09-16T11:19:48;16.70;84.00
57242;DHT22;43095;53.302;5.786;2022-09-16T11:23:05;16.60;90.00
57242;DHT22;43095;53.302;5.786;2022-09-16T11:29:08;16.60;84.30
57242;DHT22;43095;53.302;5.786;2022-09-16T11:41:42;16.90;83.60
57242;DHT22;43095;53.302;5.786;2022-09-16T11:44:55;16.70;91.30
57242;DHT22;43095;53.302;5.786;2022-09-16T11:57:02;16.80;84.50
57242;DHT22;43095;53.302;5.786;2022-09-16T12:05:55;16.70;88.40
57242;DHT22;43095;53.302;5.786;2022-09-16T12:08:56;16.70;91.40
57242;DHT22;43095;53.302;5.786;2022-09-16T12:11:47;16.80;91.80
57242;DHT22;43095;53.302;5.786;2022-09-16T12:14:40;16.90;93.10
57242;DHT22;43095;53.302;5.786;2022-09-16T12:17:30;16.80;94.30
57242;DHT22;43095;53.302;5.786;2022-09-16T12:20:21;16.70;97.80
57242;DHT22;43095;53.302;5.786;2022-09-16T12:23:19;16.40;99.90
57242;DHT22;43095;53.302;5.786;2022-09-16T12:26:26;16.20;99.90
57242;DHT22;43095;53.302;5.786;2022-09-16T12:29:21;16.30;99.30
57242;DHT22;43095;53.302;5.786;2022-09-16T12:32:18;16.40;99.90
57242;DHT22;43095;53.302;5.786;2022-09-16T12:35:32;16.60;99.20
57242;DHT22;43095;53.302;5.786;2022-09-16T12:38:19;16.50;98.50
57242;DHT22;43095;53.302;5.786;2022-09-16T12:43:59;16.50;98.90
57242;DHT22;43095;53.302;5.786;2022-09-16T12:47:31;16.60;99.20
57242;DHT22;43095;53.302;5.786;2022-09-16T12:51:27;16.60;99.30
57242;DHT22;43095;53.302;5.786;2022-09-16T13:02:36;15.90;99.90
57242;DHT22;43095;53.302;5.786;2022-09-16T13:08:22;15.60;99.90
57242;DHT22;43095;53.302;5.786;2022-09-16T13:11:24;15.60;99.90
57242;DHT22;43095;53.302;5.786;2022-09-16T13:14:35;15.50;99.90
57242;DHT22;43095;53.302;5.786;2022-09-16T13:20:31;15.50;99.90
57242;DHT22;43095;53.302;5.786;2022-09-16T13:23:26;15.50;99.90
57242;DHT22;43095;53.302;5.786;2022-09-16T13:26:12;15.50;99.90
57242;DHT22;43095;53.302;5.786;2022-09-16T13:28:59;15.50;99.90
57242;DHT22;43095;53.302;5.786;2022-09-16T13:31:46;15.50;99.90
57242;DHT22;43095;53.302;5.786;2022-09-16T13:34:32;15.30;99.90
57242;DHT22;43095;53.302;5.786;2022-09-16T13:37:25;15.20;99.90
57242;DHT22;43095;53.302;5.786;2022-09-16T13:46:09;15.00;99.90
57242;DHT22;43095;53.302;5.786;2022-09-16T13:49:09;15.10;99.90
57242;DHT22;43095;53.302;5.786;2022-09-16T13:51:57;15.10;99.90
57242;DHT22;43095;53.302;5.786;2022-09-16T13:54:48;15.10;99.90
57242;DHT22;43095;53.302;5.786;2022-09-16T14:00:55;14.80;99.90
57242;DHT22;43095;53.302;5.786;2022-09-16T14:04:13;14.70;99.90
57242;DHT22;43095;53.302;5.786;2022-09-16T14:15:54;14.60;99.90
57242;DHT22;43095;53.302;5.786;2022-09-16T14:18:43;14.60;99.90
57242;DHT22;43095;53.302;5.786;2022-09-16T14:21:33;14.50;99.90
57242;DHT22;43095;53.302;5.786;2022-09-16T14:24:19;14.20;99.90
57242;DHT22;43095;53.302;5.786;2022-09-16T14:30:16;13.60;99.90
57242;DHT22;43095;53.302;5.786;2022-09-16T14:33:02;13.50;99.90
57242;DHT22;43095;53.302;5.786;2022-09-16T14:35:52;13.40;99.90
57242;DHT22;43095;53.302;5.786;2022-09-16T14:39:03;13.40;99.90
57242;DHT22;43095;53.302;5.786;2022-09-16T14:42:04;13.20;99.90
57242;DHT22;43095;53.302;5.786;2022-09-16T14:44:53;13.00;99.90
57242;DHT22;43095;53.302;5.786;2022-09-16T14:47:39;12.90;99.90
57242;DHT22;43095;53.302;5.786;2022-09-16T14:50:43;12.90;99.90
57242;DHT22;43095;53.302;5.786;2022-09-16T14:53:32;13.00;99.90
57242;DHT22;43095;53.302;5.786;2022-09-16T14:56:23;13.10;99.90
57242;DHT22;43095;53.302;5.786;2022-09-16T14:59:10;13.10;99.90
57242;DHT22;43095;53.302;5.786;2022-09-16T15:05:35;13.10;99.90
57242;DHT22;43095;53.302;5.786;2022-09-16T15:08:32;13.00;99.90
57242;DHT22;43095;53.302;5.786;2022-09-16T15:11:29;13.00;99.90
57242;DHT22;43095;53.302;5.786;2022-09-16T15:14:36;12.90;99.90
57242;DHT22;43095;53.302;5.786;2022-09-16T15:17:26;12.70;99.90
57242;DHT22;43095;53.302;5.786;2022-09-16T15:20:23;12.70;99.90
57242;DHT22;43095;53.302;5.786;2022-09-16T15:23:21;12.70;99.90
57242;DHT22;43095;53.302;5.786;2022-09-16T15:29:01;12.80;99.90
57242;DHT22;43095;53.302;5.786;2022-09-16T15:31:47;12.90;99.90
57242;DHT22;43095;53.302;5.786;2022-09-16T15:34:34;13.00;99.90
57242;DHT22;43095;53.302;5.786;2022-09-16T15:37:32;13.10;99.90
57242;DHT22;43095;53.302;5.786;2022-09-16T15:43:16;13.30;99.90
57242;DHT22;43095;53.302;5.786;2022-09-16T15:46:22;13.30;99.90
57242;DHT22;43095;53.302;5.786;2022-09-16T15:49:11;13.40;99.90
57242;DHT22;43095;53.302;5.786;2022-09-16T15:52:05;13.50;99.90
57242;DHT22;43095;53.302;5.786;2022-09-16T15:54:59;13.60;99.90
57242;DHT22;43095;53.302;5.786;2022-09-16T15:57:47;13.70;99.90
57242;DHT22;43095;53.302;5.786;2022-09-16T16:03:58;13.80;99.90
57242;DHT22;43095;53.302;5.786;2022-09-16T16:07:04;13.80;99.90
57242;DHT22;43095;53.302;5.786;2022-09-16T16:09:50;13.90;99.90
57242;DHT22;43095;53.302;5.786;2022-09-16T16:12:36;14.00;99.90
57242;DHT22;43095;53.302;5.786;2022-09-16T16:15:42;14.00;99.90
57242;DHT22;43095;53.302;5.786;2022-09-16T16:18:30;14.10;99.90
57242;DHT22;43095;53.302;5.786;2022-09-16T16:21:19;13.80;99.90
57242;DHT22;43095;53.302;5.786;2022-09-16T16:23:59;13.50;99.90
57242;DHT22;43095;53.302;5.786;2022-09-16T16:26:45;13.40;99.90
57242;DHT22;43095;53.302;5.786;2022-09-16T16:29:31;13.30;99.90
57242;DHT22;43095;53.302;5.786;2022-09-16T16:32:17;13.20;99.90
57242;DHT22;43095;53.302;5.786;2022-09-16T16:35:05;13.20;99.90
57242;DHT22;43095;53.302;5.786;2022-09-16T16:37:51;13.20;99.90
57242;DHT22;43095;53.302;5.786;2022-09-16T16:40:37;13.10;99.90
57242;DHT22;43095;53.302;5.786;2022-09-16T16:43:22;13.10;99.90
57242;DHT22;43095;53.302;5.786;2022-09-16T16:46:08;13.20;99.90
57242;DHT22;43095;53.302;5.786;2022-09-16T16:48:55;13.20;99.90
57242;DHT22;43095;53.302;5.786;2022-09-16T16:51:40;13.20;99.90
57242;DHT22;43095;53.302;5.786;2022-09-16T16:54:26;13.20;99.90
57242;DHT22;43095;53.302;5.786;2022-09-16T16:57:12;13.20;99.90
57242;DHT22;43095;53.302;5.786;2022-09-16T16:59:58;13.20;99.90
57242;DHT22;43095;53.302;5.786;2022-09-16T17:02:43;13.20;99.90
57242;DHT22;43095;53.302;5.786;2022-09-16T17:05:30;13.20;99.90
57242;DHT22;43095;53.302;5.786;2022-09-16T17:08:15;13.20;99.90
57242;DHT22;43095;53.302;5.786;2022-09-16T17:11:20;13.20;99.90
57242;DHT22;43095;53.302;5.786;2022-09-16T17:14:06;13.20;99.90
57242;DHT22;43095;53.302;5.786;2022-09-16T17:16:52;13.20;99.90
57242;DHT22;43095;53.302;5.786;2022-09-16T17:19:39;13.30;99.90
57242;DHT22;43095;53.302;5.786;2022-09-16T17:22:25;13.30;99.90
57242;DHT22;43095;53.302;5.786;2022-09-16T17:25:11;13.30;99.90
57242;DHT22;43095;53.302;5.786;2022-09-16T17:27:56;13.30;99.90
57242;DHT22;43095;53.302;5.786;2022-09-16T17:30:43;13.30;99.90
57242;DHT22;43095;53.302;5.786;2022-09-16T17:33:29;13.40;99.90
57242;DHT22;43095;53.302;5.786;2022-09-16T17:36:16;13.40;99.90
57242;DHT22;43095;53.302;5.786;2022-09-16T17:39:09;13.20;99.90
57242;DHT22;43095;53.302;5.786;2022-09-16T17:41:55;13.20;99.90
57242;DHT22;43095;53.302;5.786;2022-09-16T17:44:42;13.10;99.90
57242;DHT22;43095;53.302;5.786;2022-09-16T17:47:28;13.10;99.90
57242;DHT22;43095;53.302;5.786;2022-09-16T17:50:14;13.00;99.90
57242;DHT22;43095;53.302;5.786;2022-09-16T17:53:07;13.00;99.90
57242;DHT22;43095;53.302;5.786;2022-09-16T17:56:01;13.00;99.90
57242;DHT22;43095;53.302;5.786;2022-09-16T17:58:49;13.00;99.90
57242;DHT22;43095;53.302;5.786;2022-09-16T18:01:35;13.10;99.90
57242;DHT22;43095;53.302;5.786;2022-09-16T18:04:21;12.90;99.90
57242;DHT22;43095;53.302;5.786;2022-09-16T18:07:07;12.80;99.90
57242;DHT22;43095;53.302;5.786;2022-09-16T18:09:54;12.70;99.90
57242;DHT22;43095;53.302;5.786;2022-09-16T18:12:40;12.60;99.90
57242;DHT22;43095;53.302;5.786;2022-09-16T18:15:26;12.60;99.90
57242;DHT22;43095;53.302;5.786;2022-09-16T18:18:11;12.50;99.90
57242;DHT22;43095;53.302;5.786;2022-09-16T18:20:58;12.50;99.90
57242;DHT22;43095;53.302;5.786;2022-09-16T18:23:55;12.50;99.90
57242;DHT22;43095;53.302;5.786;2022-09-16T18:30:00;12.40;99.90
57242;DHT22;43095;53.302;5.786;2022-09-16T18:32:46;12.50;99.90
57242;DHT22;43095;53.302;5.786;2022-09-16T18:35:32;12.50;99.90
57242;DHT22;43095;53.302;5.786;2022-09-16T18:38:21;12.50;99.90
57242;DHT22;43095;53.302;5.786;2022-09-16T18:41:09;12.40;99.90
57242;DHT22;43095;53.302;5.786;2022-09-16T18:44:01;12.40;99.90
57242;DHT22;43095;53.302;5.786;2022-09-16T18:46:48;12.50;99.90
57242;DHT22;43095;53.302;5.786;2022-09-16T18:49:34;12.50;99.90
57242;DHT22;43095;53.302;5.786;2022-09-16T18:52:20;12.60;99.90
57242;DHT22;43095;53.302;5.786;2022-09-16T18:55:06;12.60;99.90
57242;DHT22;43095;53.302;5.786;2022-09-16T18:57:52;12.70;99.90
57242;DHT22;43095;53.302;5.786;2022-09-16T19:00:37;12.70;99.90
57242;DHT22;43095;53.302;5.786;2022-09-16T19:03:23;12.80;99.90
57242;DHT22;43095;53.302;5.786;2022-09-16T19:06:09;12.80;99.90
57242;DHT22;43095;53.302;5.786;2022-09-16T19:08:55;12.80;99.90
57242;DHT22;43095;53.302;5.786;2022-09-16T19:11:41;12.80;99.90
57242;DHT22;43095;53.302;5.786;2022-09-16T19:14:27;12.80;99.90
57242;DHT22;43095;53.302;5.786;2022-09-16T19:17:13;12.80;99.90
57242;DHT22;43095;53.302;5.786;2022-09-16T19:19:59;12.80;99.90
57242;DHT22;43095;53.302;5.786;2022-09-16T19:22:45;12.80;99.90
57242;DHT22;43095;53.302;5.786;2022-09-16T19:25:30;12.80;99.90
57242;DHT22;43095;53.302;5.786;2022-09-16T19:28:17;12.80;99.90
57242;DHT22;43095;53.302;5.786;2022-09-16T19:31:05;12.90;99.90
57242;DHT22;43095;53.302;5.786;2022-09-16T19:33:51;12.90;99.90
57242;DHT22;43095;53.302;5.786;2022-09-16T19:36:36;12.90;99.90
57242;DHT22;43095;53.302;5.786;2022-09-16T19:39:22;13.00;99.90
57242;DHT22;43095;53.302;5.786;2022-09-16T19:42:09;13.00;99.90
57242;DHT22;43095;53.302;5.786;2022-09-16T19:44:55;13.10;99.90
57242;DHT22;43095;53.302;5.786;2022-09-16T19:47:41;13.10;99.90
57242;DHT22;43095;53.302;5.786;2022-09-16T19:50:27;13.10;99.90
57242;DHT22;43095;53.302;5.786;2022-09-16T19:53:14;13.00;99.90
57242;DHT22;43095;53.302;5.786;2022-09-16T19:56:08;13.00;99.90
57242;DHT22;43095;53.302;5.786;2022-09-16T19:58:54;13.00;99.90
57242;DHT22;43095;53.302;5.786;2022-09-16T20:01:40;13.00;99.90
57242;DHT22;43095;53.302;5.786;2022-09-16T20:04:26;13.00;99.90
57242;DHT22;43095;53.302;5.786;2022-09-16T20:07:12;12.90;99.90
57242;DHT22;43095;53.302;5.786;2022-09-16T20:10:01;12.80;99.90
57242;DHT22;43095;53.302;5.786;2022-09-16T20:12:47;12.80;99.90
57242;DHT22;43095;53.302;5.786;2022-09-16T20:15:34;12.70;99.90
57242;DHT22;43095;53.302;5.786;2022-09-16T20:18:20;12.80;99.90
57242;DHT22;43095;53.302;5.786;2022-09-16T20:21:09;12.80;99.90
57242;DHT22;43095;53.302;5.786;2022-09-16T20:23:55;12.80;99.90
57242;DHT22;43095;53.302;5.786;2022-09-16T20:26:41;12.80;99.90
57242;DHT22;43095;53.302;5.786;2022-09-16T20:29:27;12.80;99.90
57242;DHT22;43095;53.302;5.786;2022-09-16T20:32:13;12.80;99.90